sensor_id;sensor_type;location;lat;lon;timestamp;pressure;altitude;pressure_sealevel;temperature;humidity
35248;BME280;21380;52.194;20.520;2023-12-22T10:32:07;97072.31;;;13.85;53.13
35248;BME280;21380;52.194;20.520;2023-12-22T10:34:38;97061.31;;;13.75;52.82
35248;BME280;21380;52.194;20.520;2023-12-22T10:37:04;97039.94;;;13.69;53.33
35248;BME280;21380;52.194;20.520;2023-12-22T10:39:31;97044.16;;;13.71;54.17
35248;BME280;21380;52.194;20.520;2023-12-22T10:42:02;97038.13;;;13.71;54.21
35248;BME280;21380;52.194;20.520;2023-12-22T10:44:28;97031.16;;;13.73;54.62
35248;BME280;21380;52.194;20.520;2023-12-22T10:46:55;97019.00;;;13.76;54.73
35248;BME280;21380;52.194;20.520;2023-12-22T10:49:22;97017.22;;;13.77;54.85
35248;BME280;21380;52.194;20.520;2023-12-22T10:51:51;97024.06;;;13.79;54.28
35248;BME280;21380;52.194;20.520;2023-12-22T10:54:19;97018.94;;;13.78;55.20
35248;BME280;21380;52.194;20.520;2023-12-22T10:56:45;97005.09;;;13.79;54.84
35248;BME280;21380;52.194;20.520;2023-12-22T10:59:11;96997.25;;;13.82;55.50
35248;BME280;21380;52.194;20.520;2023-12-22T11:01:37;97003.28;;;13.83;55.24
35248;BME280;21380;52.194;20.520;2023-12-22T11:04:17;96995.50;;;13.83;55.96
35248;BME280;21380;52.194;20.520;2023-12-22T11:06:47;96994.56;;;13.85;54.93
35248;BME280;21380;52.194;20.520;2023-12-22T11:09:16;96986.91;;;13.81;54.85
35248;BME280;21380;52.194;20.520;2023-12-22T11:11:42;96988.56;;;13.85;55.36
35248;BME280;21380;52.194;20.520;2023-12-22T11:14:09;96984.22;;;13.85;55.42
35248;BME280;21380;52.194;20.520;2023-12-22T11:16:36;96980.72;;;13.86;55.21
35248;BME280;21380;52.194;20.520;2023-12-22T11:19:03;96986.75;;;13.87;55.22
35248;BME280;21380;52.194;20.520;2023-12-22T11:21:30;96978.97;;;13.87;55.29
35248;BME280;21380;52.194;20.520;2023-12-22T11:23:57;96984.94;;;13.90;55.29
35248;BME280;21380;52.194;20.520;2023-12-22T11:26:23;96984.81;;;13.95;55.01
35248;BME280;21380;52.194;20.520;2023-12-22T11:28:51;96963.19;;;13.96;54.67
35248;BME280;21380;52.194;20.520;2023-12-22T11:31:18;96975.22;;;13.97;55.87
35248;BME280;21380;52.194;20.520;2023-12-22T11:33:46;96976.03;;;13.99;55.99
35248;BME280;21380;52.194;20.520;2023-12-22T11:36:14;96969.22;;;13.97;56.79
35248;BME280;21380;52.194;20.520;2023-12-22T11:38:41;96969.16;;;13.98;55.50
35248;BME280;21380;52.194;20.520;2023-12-22T11:41:14;96959.72;;;13.95;56.19
35248;BME280;21380;52.194;20.520;2023-12-22T11:43:42;96963.19;;;13.96;55.33
35248;BME280;21380;52.194;20.520;2023-12-22T11:46:09;96951.97;;;13.95;55.77
35248;BME280;21380;52.194;20.520;2023-12-22T11:48:35;96954.53;;;13.95;55.57
35248;BME280;21380;52.194;20.520;2023-12-22T11:51:12;96946.81;;;13.94;55.98
35248;BME280;21380;52.194;20.520;2023-12-22T11:53:38;96956.31;;;13.95;56.39
35248;BME280;21380;52.194;20.520;2023-12-22T11:56:05;96949.38;;;13.95;55.60
35248;BME280;21380;52.194;20.520;2023-12-22T12:01:17;96948.53;;;13.95;55.76
35248;BME280;21380;52.194;20.520;2023-12-22T12:04:02;96939.00;;;13.95;56.24
35248;BME280;21380;52.194;20.520;2023-12-22T12:08:57;96935.69;;;13.90;55.27
35248;BME280;21380;52.194;20.520;2023-12-22T12:11:24;96932.28;;;13.90;55.82
35248;BME280;21380;52.194;20.520;2023-12-22T12:14:14;96950.31;;;13.93;55.31
35248;BME280;21380;52.194;20.520;2023-12-22T12:16:42;96940.44;;;11.05;59.19
35248;BME280;21380;52.194;20.520;2023-12-22T12:19:09;96943.06;;;11.94;59.22
35248;BME280;21380;52.194;20.520;2023-12-22T12:21:35;96929.25;;;12.37;57.97
35248;BME280;21380;52.194;20.520;2023-12-22T12:24:01;96920.94;;;12.60;57.66
35248;BME280;21380;52.194;20.520;2023-12-22T12:26:27;96919.81;;;12.72;57.64
35248;BME280;21380;52.194;20.520;2023-12-22T12:28:55;96936.78;;;12.82;57.97
35248;BME280;21380;52.194;20.520;2023-12-22T12:31:35;96922.09;;;12.85;57.33
35248;BME280;21380;52.194;20.520;2023-12-22T12:34:04;96931.28;;;12.96;58.67
35248;BME280;21380;52.194;20.520;2023-12-22T12:36:31;96934.53;;;13.05;59.33
35248;BME280;21380;52.194;20.520;2023-12-22T12:39:14;96926.81;;;13.02;58.52
35248;BME280;21380;52.194;20.520;2023-12-22T12:41:41;96941.97;;;13.17;60.31
35248;BME280;21380;52.194;20.520;2023-12-22T12:44:09;96930.66;;;13.21;60.50
35248;BME280;21380;52.194;20.520;2023-12-22T12:46:39;96933.97;;;13.26;60.48
35248;BME280;21380;52.194;20.520;2023-12-22T12:49:09;96942.44;;;13.32;61.08
35248;BME280;21380;52.194;20.520;2023-12-22T12:51:37;96939.75;;;13.36;61.34
35248;BME280;21380;52.194;20.520;2023-12-22T12:54:05;96940.56;;;13.40;61.70
35248;BME280;21380;52.194;20.520;2023-12-22T12:56:44;96943.00;;;13.44;61.46
35248;BME280;21380;52.194;20.520;2023-12-22T12:59:12;96920.47;;;13.48;62.13
35248;BME280;21380;52.194;20.520;2023-12-22T13:01:43;96909.28;;;13.48;62.26
35248;BME280;21380;52.194;20.520;2023-12-22T13:04:10;96930.66;;;13.54;62.67
35248;BME280;21380;52.194;20.520;2023-12-22T13:06:50;96922.88;;;13.54;61.51
35248;BME280;21380;52.194;20.520;2023-12-22T13:09:18;96944.06;;;11.88;59.49
35248;BME280;21380;52.194;20.520;2023-12-22T13:11:45;96942.09;;;7.91;66.33
35248;BME280;21380;52.194;20.520;2023-12-22T13:14:21;96950.94;;;6.88;69.71
35248;BME280;21380;52.194;20.520;2023-12-22T13:16:48;96921.03;;;6.99;72.71
35248;BME280;21380;52.194;20.520;2023-12-22T13:19:14;96940.00;;;8.59;71.07
35248;BME280;21380;52.194;20.520;2023-12-22T13:21:40;96932.13;;;7.10;70.19
35248;BME280;21380;52.194;20.520;2023-12-22T13:24:10;96925.72;;;8.17;70.19
35248;BME280;21380;52.194;20.520;2023-12-22T13:26:37;96909.41;;;9.25;72.52
35248;BME280;21380;52.194;20.520;2023-12-22T13:29:09;96907.50;;;10.11;72.69
35248;BME280;21380;52.194;20.520;2023-12-22T13:31:40;96902.44;;;10.63;73.05
35248;BME280;21380;52.194;20.520;2023-12-22T13:34:10;96906.78;;;11.12;72.90
35248;BME280;21380;52.194;20.520;2023-12-22T13:36:36;96913.97;;;11.42;73.50
35248;BME280;21380;52.194;20.520;2023-12-22T13:39:06;96912.44;;;11.75;73.13
35248;BME280;21380;52.194;20.520;2023-12-22T13:41:39;96906.75;;;12.02;73.11
35248;BME280;21380;52.194;20.520;2023-12-22T13:44:12;96925.22;;;11.38;67.02
35248;BME280;21380;52.194;20.520;2023-12-22T13:46:39;96929.59;;;6.96;71.88
35248;BME280;21380;52.194;20.520;2023-12-22T13:49:10;96923.06;;;8.26;72.62
35248;BME280;21380;52.194;20.520;2023-12-22T13:51:40;96917.72;;;9.52;73.82
35248;BME280;21380;52.194;20.520;2023-12-22T13:54:06;96910.59;;;10.38;73.55
35248;BME280;21380;52.194;20.520;2023-12-22T13:56:42;96907.03;;;10.98;73.37
35248;BME280;21380;52.194;20.520;2023-12-22T13:59:09;96906.44;;;11.31;73.40
35248;BME280;21380;52.194;20.520;2023-12-22T14:01:36;96921.34;;;11.62;73.38
35248;BME280;21380;52.194;20.520;2023-12-22T14:04:03;96914.81;;;11.86;73.34
35248;BME280;21380;52.194;20.520;2023-12-22T14:06:29;96896.53;;;11.95;73.31
35248;BME280;21380;52.194;20.520;2023-12-22T14:08:56;96902.06;;;12.21;73.06
35248;BME280;21380;52.194;20.520;2023-12-22T14:11:22;96909.50;;;12.35;73.01
35248;BME280;21380;52.194;20.520;2023-12-22T14:13:48;96905.84;;;12.43;73.17
35248;BME280;21380;52.194;20.520;2023-12-22T14:16:15;96913.28;;;12.57;72.90
35248;BME280;21380;52.194;20.520;2023-12-22T14:18:42;96902.84;;;12.60;73.13
35248;BME280;21380;52.194;20.520;2023-12-22T14:21:08;96901.63;;;12.75;73.41
35248;BME280;21380;52.194;20.520;2023-12-22T14:23:34;96905.72;;;12.84;73.15
35248;BME280;21380;52.194;20.520;2023-12-22T14:26:00;96890.03;;;12.90;72.97
35248;BME280;21380;52.194;20.520;2023-12-22T14:28:26;96886.56;;;12.91;73.02
35248;BME280;21380;52.194;20.520;2023-12-22T14:30:53;96895.78;;;13.02;73.24
35248;BME280;21380;52.194;20.520;2023-12-22T14:33:19;96907.78;;;13.06;72.84
35248;BME280;21380;52.194;20.520;2023-12-22T14:35:45;96896.41;;;13.11;72.96
35248;BME280;21380;52.194;20.520;2023-12-22T14:38:11;96894.53;;;13.17;72.81
35248;BME280;21380;52.194;20.520;2023-12-22T14:40:37;96894.47;;;13.18;72.66
35248;BME280;21380;52.194;20.520;2023-12-22T14:43:03;96904.72;;;13.23;72.62
35248;BME280;21380;52.194;20.520;2023-12-22T14:45:29;96899.50;;;13.24;72.42
35248;BME280;21380;52.194;20.520;2023-12-22T14:47:56;96909.78;;;13.27;72.70
35248;BME280;21380;52.194;20.520;2023-12-22T14:50:21;96920.91;;;13.31;72.30
35248;BME280;21380;52.194;20.520;2023-12-22T14:52:47;96894.31;;;13.26;72.37
35248;BME280;21380;52.194;20.520;2023-12-22T14:55:14;96921.63;;;13.36;72.38
35248;BME280;21380;52.194;20.520;2023-12-22T14:57:40;96915.50;;;13.40;72.43
35248;BME280;21380;52.194;20.520;2023-12-22T15:00:06;96935.38;;;13.40;72.23
35248;BME280;21380;52.194;20.520;2023-12-22T15:02:34;96927.56;;;13.41;72.26
35248;BME280;21380;52.194;20.520;2023-12-22T15:05:00;96931.00;;;13.42;71.97
35248;BME280;21380;52.194;20.520;2023-12-22T15:07:26;96930.06;;;13.44;72.25
35248;BME280;21380;52.194;20.520;2023-12-22T15:09:52;96927.44;;;13.46;71.76
35248;BME280;21380;52.194;20.520;2023-12-22T15:12:18;96933.69;;;13.39;71.72
35248;BME280;21380;52.194;20.520;2023-12-22T15:14:47;96937.66;;;13.51;71.62
35248;BME280;21380;52.194;20.520;2023-12-22T15:17:14;96969.94;;;8.67;66.32
35248;BME280;21380;52.194;20.520;2023-12-22T15:19:42;96970.38;;;7.82;73.74
35248;BME280;21380;52.194;20.520;2023-12-22T15:22:09;96961.53;;;9.44;72.70
35248;BME280;21380;52.194;20.520;2023-12-22T15:24:42;96961.97;;;10.47;73.14
35248;BME280;21380;52.194;20.520;2023-12-22T15:27:12;96954.94;;;11.12;72.31
35248;BME280;21380;52.194;20.520;2023-12-22T15:29:38;96958.59;;;11.48;71.31
35248;BME280;21380;52.194;20.520;2023-12-22T15:32:05;96955.47;;;11.76;71.44
35248;BME280;21380;52.194;20.520;2023-12-22T15:34:31;96968.06;;;11.93;71.48
35248;BME280;21380;52.194;20.520;2023-12-22T15:36:57;96959.97;;;12.10;71.53
35248;BME280;21380;52.194;20.520;2023-12-22T15:39:23;96963.16;;;12.22;71.18
35248;BME280;21380;52.194;20.520;2023-12-22T15:41:49;96961.19;;;12.33;71.19
35248;BME280;21380;52.194;20.520;2023-12-22T15:44:15;96962.75;;;12.40;71.40
35248;BME280;21380;52.194;20.520;2023-12-22T15:46:42;96962.53;;;12.51;71.51
35248;BME280;21380;52.194;20.520;2023-12-22T15:49:08;96960.59;;;12.59;71.30
35248;BME280;21380;52.194;20.520;2023-12-22T15:51:34;96962.25;;;12.63;71.43
35248;BME280;21380;52.194;20.520;2023-12-22T15:54:00;96965.53;;;12.70;71.54
35248;BME280;21380;52.194;20.520;2023-12-22T15:56:28;96965.38;;;12.76;71.22
35248;BME280;21380;52.194;20.520;2023-12-22T15:58:54;96973.88;;;12.81;71.07
35248;BME280;21380;52.194;20.520;2023-12-22T16:01:20;96971.19;;;12.86;71.41
35248;BME280;21380;52.194;20.520;2023-12-22T16:03:46;96974.63;;;12.87;70.56
35248;BME280;21380;52.194;20.520;2023-12-22T16:06:16;96978.88;;;12.89;70.85
35248;BME280;21380;52.194;20.520;2023-12-22T16:08:42;96981.44;;;12.91;70.49
35248;BME280;21380;52.194;20.520;2023-12-22T16:11:08;96988.44;;;12.86;70.21
35248;BME280;21380;52.194;20.520;2023-12-22T16:13:34;96979.69;;;12.91;69.76
35248;BME280;21380;52.194;20.520;2023-12-22T16:16:01;96983.94;;;12.94;69.74
35248;BME280;21380;52.194;20.520;2023-12-22T16:18:28;96998.59;;;12.95;70.09
35248;BME280;21380;52.194;20.520;2023-12-22T16:20:54;96997.63;;;12.99;69.61
35248;BME280;21380;52.194;20.520;2023-12-22T16:23:20;96995.03;;;12.99;69.09
35248;BME280;21380;52.194;20.520;2023-12-22T16:25:50;96993.31;;;12.98;69.23
35248;BME280;21380;52.194;20.520;2023-12-22T16:28:22;96994.16;;;13.00;69.22
35248;BME280;21380;52.194;20.520;2023-12-22T16:30:49;97003.72;;;12.96;68.64
35248;BME280;21380;52.194;20.520;2023-12-22T16:33:15;96989.81;;;13.01;68.95
35248;BME280;21380;52.194;20.520;2023-12-22T16:35:42;96992.41;;;13.01;68.60
35248;BME280;21380;52.194;20.520;2023-12-22T16:38:10;96961.53;;;12.93;68.14
35248;BME280;21380;52.194;20.520;2023-12-22T16:40:36;97004.44;;;13.02;68.44
35248;BME280;21380;52.194;20.520;2023-12-22T16:43:03;97013.09;;;13.02;68.02
35248;BME280;21380;52.194;20.520;2023-12-22T16:45:31;96995.94;;;12.96;67.76
35248;BME280;21380;52.194;20.520;2023-12-22T16:47:57;97007.91;;;13.02;67.76
35248;BME280;21380;52.194;20.520;2023-12-22T16:50:25;97013.03;;;13.04;67.34
35248;BME280;21380;52.194;20.520;2023-12-22T16:52:51;97014.75;;;13.03;67.36
35248;BME280;21380;52.194;20.520;2023-12-22T16:55:17;97007.91;;;13.02;67.06
35248;BME280;21380;52.194;20.520;2023-12-22T16:57:44;97003.66;;;13.00;66.85
35248;BME280;21380;52.194;20.520;2023-12-22T17:00:11;97001.06;;;13.00;66.81
35248;BME280;21380;52.194;20.520;2023-12-22T17:02:39;97012.22;;;13.02;66.55
35248;BME280;21380;52.194;20.520;2023-12-22T17:05:05;97015.63;;;13.04;65.94
35248;BME280;21380;52.194;20.520;2023-12-22T17:07:31;97015.66;;;13.02;66.25
35248;BME280;21380;52.194;20.520;2023-12-22T17:09:57;97020.03;;;13.00;65.98
35248;BME280;21380;52.194;20.520;2023-12-22T17:12:23;97026.03;;;13.01;66.30
35248;BME280;21380;52.194;20.520;2023-12-22T17:14:50;97015.69;;;13.01;66.21
35248;BME280;21380;52.194;20.520;2023-12-22T17:17:16;97028.63;;;13.01;66.08
35248;BME280;21380;52.194;20.520;2023-12-22T17:19:42;97034.56;;;13.04;65.87
35248;BME280;21380;52.194;20.520;2023-12-22T17:22:08;97052.72;;;13.03;65.76
35248;BME280;21380;52.194;20.520;2023-12-22T17:24:34;97042.31;;;13.06;65.82
35248;BME280;21380;52.194;20.520;2023-12-22T17:26:59;97044.94;;;13.04;65.57
35248;BME280;21380;52.194;20.520;2023-12-22T17:29:26;97058.72;;;13.05;65.46
35248;BME280;21380;52.194;20.520;2023-12-22T17:31:52;97055.25;;;13.06;65.51
35248;BME280;21380;52.194;20.520;2023-12-22T17:34:24;97053.56;;;13.03;65.39
35248;BME280;21380;52.194;20.520;2023-12-22T17:36:50;97063.88;;;13.06;65.29
35248;BME280;21380;52.194;20.520;2023-12-22T17:39:16;97073.34;;;13.07;65.17
35248;BME280;21380;52.194;20.520;2023-12-22T17:41:42;97061.22;;;13.08;65.27
35248;BME280;21380;52.194;20.520;2023-12-22T17:44:09;97067.28;;;13.08;65.01
35248;BME280;21380;52.194;20.520;2023-12-22T17:46:36;97068.13;;;13.09;65.44
35248;BME280;21380;52.194;20.520;2023-12-22T17:49:04;97072.38;;;13.11;64.98
35248;BME280;21380;52.194;20.520;2023-12-22T17:51:30;97075.91;;;13.07;64.68
35248;BME280;21380;52.194;20.520;2023-12-22T17:53:57;97078.50;;;13.07;64.95
35248;BME280;21380;52.194;20.520;2023-12-22T17:56:23;97086.31;;;13.06;64.00
35248;BME280;21380;52.194;20.520;2023-12-22T17:58:50;97096.69;;;13.04;64.05
35248;BME280;21380;52.194;20.520;2023-12-22T18:01:16;97079.53;;;13.00;63.79
35248;BME280;21380;52.194;20.520;2023-12-22T18:03:42;97087.28;;;13.00;63.64
35248;BME280;21380;52.194;20.520;2023-12-22T18:06:08;97085.53;;;13.02;63.70
35248;BME280;21380;52.194;20.520;2023-12-22T18:08:34;97099.25;;;13.04;63.58
35248;BME280;21380;52.194;20.520;2023-12-22T18:11:03;97099.31;;;13.03;63.50
35248;BME280;21380;52.194;20.520;2023-12-22T18:13:29;97094.22;;;13.00;62.80
35248;BME280;21380;52.194;20.520;2023-12-22T18:16:00;97095.88;;;13.02;63.15
35248;BME280;21380;52.194;20.520;2023-12-22T18:18:26;97095.94;;;12.99;63.46
35248;BME280;21380;52.194;20.520;2023-12-22T18:20:52;97098.47;;;13.01;63.22
35248;BME280;21380;52.194;20.520;2023-12-22T18:23:18;97097.56;;;13.03;62.98
35248;BME280;21380;52.194;20.520;2023-12-22T18:25:45;97104.47;;;13.03;63.14
35248;BME280;21380;52.194;20.520;2023-12-22T18:28:11;97101.84;;;13.06;63.08
35248;BME280;21380;52.194;20.520;2023-12-22T18:30:37;97092.38;;;13.03;63.11
35248;BME280;21380;52.194;20.520;2023-12-22T18:33:04;97097.63;;;13.00;62.74
35248;BME280;21380;52.194;20.520;2023-12-22T18:35:29;97095.94;;;12.99;63.13
35248;BME280;21380;52.194;20.520;2023-12-22T18:37:56;97113.16;;;13.00;62.75
35248;BME280;21380;52.194;20.520;2023-12-22T18:40:21;97097.59;;;13.02;62.40
35248;BME280;21380;52.194;20.520;2023-12-22T18:42:48;97101.88;;;13.03;62.76
35248;BME280;21380;52.194;20.520;2023-12-22T18:45:13;97096.03;;;12.94;62.22
35248;BME280;21380;52.194;20.520;2023-12-22T18:47:40;97110.66;;;12.95;62.15
35248;BME280;21380;52.194;20.520;2023-12-22T18:50:06;97102.94;;;12.94;61.96
35248;BME280;21380;52.194;20.520;2023-12-22T18:52:32;97121.06;;;12.94;62.06
35248;BME280;21380;52.194;20.520;2023-12-22T18:54:58;97126.19;;;12.95;62.03
35248;BME280;21380;52.194;20.520;2023-12-22T18:57:24;97140.03;;;12.93;62.16
35248;BME280;21380;52.194;20.520;2023-12-22T18:59:49;97107.47;;;12.84;61.87
35248;BME280;21380;52.194;20.520;2023-12-22T19:02:20;97130.53;;;12.95;61.77
35248;BME280;21380;52.194;20.520;2023-12-22T19:04:46;97141.75;;;12.94;61.76
35248;BME280;21380;52.194;20.520;2023-12-22T19:07:13;97124.47;;;12.94;62.26
35248;BME280;21380;52.194;20.520;2023-12-22T19:09:42;97138.28;;;12.95;62.06
35248;BME280;21380;52.194;20.520;2023-12-22T19:12:08;97143.44;;;12.96;61.78
35248;BME280;21380;52.194;20.520;2023-12-22T19:14:34;97142.59;;;12.96;61.49
35248;BME280;21380;52.194;20.520;2023-12-22T19:17:00;97136.59;;;12.94;61.50
35248;BME280;21380;52.194;20.520;2023-12-22T19:19:26;97132.25;;;12.94;61.59
35248;BME280;21380;52.194;20.520;2023-12-22T19:21:52;97135.75;;;12.92;61.42
35248;BME280;21380;52.194;20.520;2023-12-22T19:24:18;97145.22;;;12.93;61.12
35248;BME280;21380;52.194;20.520;2023-12-22T19:26:44;97136.59;;;12.94;61.28
35248;BME280;21380;52.194;20.520;2023-12-22T19:29:12;97140.03;;;12.93;61.30
35248;BME280;21380;52.194;20.520;2023-12-22T19:31:40;97139.16;;;12.94;61.26
35248;BME280;21380;52.194;20.520;2023-12-22T19:34:06;97147.84;;;12.91;61.04
35248;BME280;21380;52.194;20.520;2023-12-22T19:36:32;97144.34;;;12.94;60.99
35248;BME280;21380;52.194;20.520;2023-12-22T19:38:58;97141.84;;;12.91;60.98
35248;BME280;21380;52.194;20.520;2023-12-22T19:41:25;97147.66;;;11.05;58.69
35248;BME280;21380;52.194;20.520;2023-12-22T19:43:54;97153.50;;;11.73;60.24
35248;BME280;21380;52.194;20.520;2023-12-22T19:46:20;97151.25;;;12.04;59.33
35248;BME280;21380;52.194;20.520;2023-12-22T19:48:47;97185.63;;;10.94;53.42
35248;BME280;21380;52.194;20.520;2023-12-22T19:51:13;97167.63;;;9.01;57.59
35248;BME280;21380;52.194;20.520;2023-12-22T19:53:39;97162.34;;;10.27;59.71
35248;BME280;21380;52.194;20.520;2023-12-22T19:56:06;97160.69;;;10.93;60.48
35248;BME280;21380;52.194;20.520;2023-12-22T19:58:32;97159.25;;;11.35;60.41
35248;BME280;21380;52.194;20.520;2023-12-22T20:00:58;97176.88;;;11.65;60.17
35248;BME280;21380;52.194;20.520;2023-12-22T20:03:24;97181.72;;;11.85;60.54
35248;BME280;21380;52.194;20.520;2023-12-22T20:05:52;97167.84;;;11.89;60.64
35248;BME280;21380;52.194;20.520;2023-12-22T20:08:20;97190.78;;;12.09;60.90
35248;BME280;21380;52.194;20.520;2023-12-22T20:10:46;97195.78;;;12.20;61.16
35248;BME280;21380;52.194;20.520;2023-12-22T20:13:12;97199.97;;;12.27;61.19
35248;BME280;21380;52.194;20.520;2023-12-22T20:15:38;97188.75;;;12.28;61.39
35248;BME280;21380;52.194;20.520;2023-12-22T20:18:04;97192.78;;;12.42;61.68
35248;BME280;21380;52.194;20.520;2023-12-22T20:20:30;97196.16;;;12.47;61.85
35248;BME280;21380;52.194;20.520;2023-12-22T20:22:56;97199.50;;;12.52;61.92
35248;BME280;21380;52.194;20.520;2023-12-22T20:25:23;97184.88;;;12.51;61.87
35248;BME280;21380;52.194;20.520;2023-12-22T20:27:48;97184.84;;;12.53;61.89
35248;BME280;21380;52.194;20.520;2023-12-22T20:30:15;97202.78;;;12.60;62.06
35248;BME280;21380;52.194;20.520;2023-12-22T20:32:40;97209.63;;;12.63;62.10
35248;BME280;21380;52.194;20.520;2023-12-22T20:35:07;97207.13;;;12.60;61.75
35248;BME280;21380;52.194;20.520;2023-12-22T20:37:33;97219.06;;;12.65;61.99
35248;BME280;21380;52.194;20.520;2023-12-22T20:39:59;97208.72;;;12.67;61.87
35248;BME280;21380;52.194;20.520;2023-12-22T20:42:25;97220.72;;;12.68;61.92
35248;BME280;21380;52.194;20.520;2023-12-22T20:44:51;97214.69;;;12.71;62.21
35248;BME280;21380;52.194;20.520;2023-12-22T20:47:17;97217.28;;;12.69;61.60
35248;BME280;21380;52.194;20.520;2023-12-22T21:01:08;97218.78;;;13.22;60.00
35248;BME280;21380;52.194;20.520;2023-12-22T21:03:35;97229.50;;;13.05;61.15
35248;BME280;21380;52.194;20.520;2023-12-22T21:06:07;97233.03;;;13.02;61.15
35248;BME280;21380;52.194;20.520;2023-12-22T21:08:34;97221.03;;;12.96;61.80
35248;BME280;21380;52.194;20.520;2023-12-22T21:11:00;97234.84;;;12.95;61.75
35248;BME280;21380;52.194;20.520;2023-12-22T21:13:30;97239.22;;;12.93;61.73
35248;BME280;21380;52.194;20.520;2023-12-22T21:15:56;97236.66;;;12.93;61.89
35248;BME280;21380;52.194;20.520;2023-12-22T21:18:22;97240.94;;;12.93;62.15
35248;BME280;21380;52.194;20.520;2023-12-22T21:20:48;97239.19;;;12.95;61.81
35248;BME280;21380;52.194;20.520;2023-12-22T21:23:16;97234.94;;;12.92;62.13
35248;BME280;21380;52.194;20.520;2023-12-22T21:25:41;97246.94;;;12.95;61.96
35248;BME280;21380;52.194;20.520;2023-12-22T21:28:08;97257.28;;;12.96;62.17
35248;BME280;21380;52.194;20.520;2023-12-22T21:30:33;97238.38;;;12.93;61.60
35248;BME280;21380;52.194;20.520;2023-12-22T21:32:59;97235.72;;;12.96;62.14
35248;BME280;21380;52.194;20.520;2023-12-22T21:35:27;97252.09;;;12.96;62.12
35248;BME280;21380;52.194;20.520;2023-12-22T21:37:53;97249.47;;;13.00;62.32
35248;BME280;21380;52.194;20.520;2023-12-22T21:40:20;97258.13;;;12.97;61.58
35248;BME280;21380;52.194;20.520;2023-12-22T21:42:46;97241.91;;;12.89;62.00
35248;BME280;21380;52.194;20.520;2023-12-22T21:45:13;97238.53;;;12.85;61.65
35248;BME280;21380;52.194;20.520;2023-12-22T21:47:39;97245.31;;;12.91;61.44
35248;BME280;21380;52.194;20.520;2023-12-22T21:50:06;97250.31;;;13.00;62.15
35248;BME280;21380;52.194;20.520;2023-12-22T21:52:32;97248.66;;;12.96;61.66
35248;BME280;21380;52.194;20.520;2023-12-22T21:54:58;97239.34;;;12.86;61.39
35248;BME280;21380;52.194;20.520;2023-12-22T21:57:24;97256.44;;;12.96;61.39
35248;BME280;21380;52.194;20.520;2023-12-22T21:59:49;97249.53;;;12.95;61.17
35248;BME280;21380;52.194;20.520;2023-12-22T22:02:15;97276.28;;;12.94;61.37
35248;BME280;21380;52.194;20.520;2023-12-22T22:04:42;97262.44;;;12.96;61.57
35248;BME280;21380;52.194;20.520;2023-12-22T22:07:08;97264.19;;;12.96;61.46
35248;BME280;21380;52.194;20.520;2023-12-22T22:09:35;97273.66;;;12.97;61.58
35248;BME280;21380;52.194;20.520;2023-12-22T22:12:01;97278.84;;;12.95;61.39
35248;BME280;21380;52.194;20.520;2023-12-22T22:14:27;97277.94;;;12.98;61.66
35248;BME280;21380;52.194;20.520;2023-12-22T22:16:53;97274.59;;;12.93;61.12
35248;BME280;21380;52.194;20.520;2023-12-22T22:19:18;97278.03;;;12.93;61.00
35248;BME280;21380;52.194;20.520;2023-12-22T22:21:44;97284.06;;;12.94;61.25
35248;BME280;21380;52.194;20.520;2023-12-22T22:24:10;97278.84;;;12.95;61.26
35248;BME280;21380;52.194;20.520;2023-12-22T22:26:40;97271.06;;;12.97;60.81
35248;BME280;21380;52.194;20.520;2023-12-22T22:29:06;97283.19;;;12.95;61.19
35248;BME280;21380;52.194;20.520;2023-12-22T22:31:32;97278.94;;;12.91;60.51
35248;BME280;21380;52.194;20.520;2023-12-22T22:33:58;97285.81;;;12.93;61.11
35248;BME280;21380;52.194;20.520;2023-12-22T22:36:24;97284.94;;;12.93;61.02
35248;BME280;21380;52.194;20.520;2023-12-22T22:38:50;97277.16;;;12.93;61.29
35248;BME280;21380;52.194;20.520;2023-12-22T22:41:16;97284.06;;;12.94;61.02
35248;BME280;21380;52.194;20.520;2023-12-22T22:43:41;97296.97;;;12.95;61.42
35248;BME280;21380;52.194;20.520;2023-12-22T22:46:10;97286.69;;;12.92;60.76
35248;BME280;21380;52.194;20.520;2023-12-22T22:48:36;97290.97;;;12.92;60.87
35248;BME280;21380;52.194;20.520;2023-12-22T22:51:03;97300.56;;;12.88;60.70
35248;BME280;21380;52.194;20.520;2023-12-22T22:53:28;97306.50;;;12.93;61.15
35248;BME280;21380;52.194;20.520;2023-12-22T22:55:54;97300.56;;;12.88;60.98
35248;BME280;21380;52.194;20.520;2023-12-22T22:58:20;97303.91;;;12.93;61.12
35248;BME280;21380;52.194;20.520;2023-12-22T23:00:46;97290.06;;;12.94;60.73
35248;BME280;21380;52.194;20.520;2023-12-22T23:03:12;97293.56;;;12.93;61.13
35248;BME280;21380;52.194;20.520;2023-12-22T23:05:38;97294.44;;;12.92;60.84
35248;BME280;21380;52.194;20.520;2023-12-22T23:08:05;97303.03;;;12.93;60.75
35248;BME280;21380;52.194;20.520;2023-12-22T23:10:31;97320.31;;;12.92;60.70
35248;BME280;21380;52.194;20.520;2023-12-22T23:12:57;97294.41;;;12.94;61.01
35248;BME280;21380;52.194;20.520;2023-12-22T23:15:23;97306.47;;;12.95;61.02
35248;BME280;21380;52.194;20.520;2023-12-22T23:17:49;97312.50;;;12.94;60.81
35248;BME280;21380;52.194;20.520;2023-12-22T23:20:15;97314.31;;;12.90;60.45
35248;BME280;21380;52.194;20.520;2023-12-22T23:22:42;97298.75;;;12.93;60.75
35248;BME280;21380;52.194;20.520;2023-12-22T23:25:08;97301.38;;;12.90;60.88
35248;BME280;21380;52.194;20.520;2023-12-22T23:27:34;97321.13;;;12.94;61.07
35248;BME280;21380;52.194;20.520;2023-12-22T23:30:00;97310.78;;;12.94;60.77
35248;BME280;21380;52.194;20.520;2023-12-22T23:32:31;97317.69;;;12.94;60.38
35248;BME280;21380;52.194;20.520;2023-12-22T23:34:57;97328.88;;;12.96;60.87
35248;BME280;21380;52.194;20.520;2023-12-22T23:37:23;97320.22;;;12.97;60.95